Time;durP1;ratioP1;P1;durP2;ratioP2;P2;SDS_P1;SDS_P2;PMS_P1;PMS_P2;Temp;Humidity;BMP_temperature;BMP_pressure;BME280_temperature;BME280_humidity;BME280_pressure;Samples;Min_cycle;Max_cycle;Signal;HPM_P1;HPM_P2
2021/05/02 00:00:22;;;;;;;0.70;0.60;;;6.90;99.90;;;;;;5095590;28;20275;-72
2021/05/02 00:02:48;;;;;;;0.68;0.65;;;7.00;99.90;;;;;;5095689;28;20223;-72
2021/05/02 00:05:15;;;;;;;0.87;0.73;;;6.90;99.90;;;;;;5095768;28;20171;-71
2021/05/02 00:07:41;;;;;;;0.40;0.40;;;7.00;99.90;;;;;;5095640;28;20453;-72
2021/05/02 00:10:09;;;;;;;0.80;0.63;;;6.90;99.90;;;;;;5095264;28;20591;-72
2021/05/02 00:12:36;;;;;;;0.75;0.75;;;6.90;99.90;;;;;;5094415;28;20265;-72
2021/05/02 00:15:03;;;;;;;0.63;0.63;;;6.60;99.90;;;;;;5095606;28;20251;-73
2021/05/02 00:17:29;;;;;;;1.23;1.20;;;6.30;99.90;;;;;;5095489;28;20525;-72
2021/05/02 00:19:57;;;;;;;0.70;0.70;;;6.20;99.90;;;;;;5095367;28;20186;-72
2021/05/02 00:22:23;;;;;;;1.25;1.10;;;6.20;99.90;;;;;;5095442;28;20201;-72
2021/05/02 00:24:49;;;;;;;1.15;1.00;;;6.20;99.90;;;;;;5095376;28;20178;-72
2021/05/02 00:27:15;;;;;;;0.93;0.85;;;6.20;99.90;;;;;;5095413;28;20174;-71
2021/05/02 00:29:42;;;;;;;1.07;0.77;;;6.30;99.90;;;;;;5095285;28;20690;-73
2021/05/02 00:32:10;;;;;;;0.93;0.93;;;6.40;99.90;;;;;;5095339;28;20817;-72
2021/05/02 00:34:36;;;;;;;0.50;0.50;;;6.50;99.90;;;;;;5095197;28;20178;-72
2021/05/02 00:37:04;;;;;;;0.50;0.50;;;6.40;99.90;;;;;;5095128;28;20202;-72
2021/05/02 00:39:30;;;;;;;0.70;0.70;;;6.60;99.90;;;;;;5094837;28;20192;-71
2021/05/02 00:42:00;;;;;;;0.90;0.90;;;6.60;99.90;;;;;;5095163;28;20573;-72
2021/05/02 00:44:29;;;;;;;0.50;0.50;;;6.60;99.90;;;;;;5095064;28;20401;-71
2021/05/02 00:47:09;;;;;;;0.68;0.60;;;6.70;99.90;;;;;;5095103;28;20201;-72
2021/05/02 00:49:42;;;;;;;1.23;1.00;;;6.90;99.90;;;;;;5094727;28;20211;-72
2021/05/02 00:52:37;;;;;;;0.82;0.70;;;6.80;99.90;;;;;;5095050;28;20182;-71
2021/05/02 00:55:09;;;;;;;0.63;0.60;;;6.70;99.90;;;;;;5073843;28;20209;-71
2021/05/02 00:57:56;;;;;;;0.75;0.73;;;6.70;99.90;;;;;;5095080;28;20173;-71
2021/05/02 01:00:23;;;;;;;1.40;1.08;;;6.90;99.90;;;;;;5094486;28;20150;-71
2021/05/02 01:02:56;;;;;;;1.13;1.00;;;6.70;99.90;;;;;;5094761;28;20274;-72
2021/05/02 01:05:22;;;;;;;1.67;1.02;;;6.40;99.90;;;;;;5092246;28;20172;-72
2021/05/02 01:07:54;;;;;;;0.80;0.80;;;6.20;99.90;;;;;;5094422;28;20174;-71
2021/05/02 01:10:20;;;;;;;1.52;1.20;;;6.40;99.90;;;;;;5094364;28;20187;-72
2021/05/02 01:12:48;;;;;;;1.08;0.98;;;6.40;99.90;;;;;;5094351;28;20314;-73
2021/05/02 01:15:22;;;;;;;2.58;0.73;;;6.40;99.90;;;;;;5094495;28;20606;-72
2021/05/02 01:17:55;;;;;;;0.82;0.82;;;6.40;99.90;;;;;;5094555;28;20175;-72
2021/05/02 01:20:21;;;;;;;1.83;1.63;;;6.30;99.90;;;;;;5092936;28;20215;-72
2021/05/02 01:22:51;;;;;;;2.88;2.58;;;6.20;99.90;;;;;;5094322;28;20221;-72
2021/05/02 01:25:21;;;;;;;1.90;1.70;;;6.10;99.90;;;;;;5094436;28;20162;-71
2021/05/02 01:27:53;;;;;;;2.85;1.65;;;6.10;99.90;;;;;;5094151;28;20165;-72
2021/05/02 01:30:19;;;;;;;1.90;1.80;;;6.30;99.90;;;;;;5093840;28;20192;-71
2021/05/02 01:32:45;;;;;;;2.35;2.15;;;6.40;99.90;;;;;;5094416;28;20175;-71
2021/05/02 01:35:10;;;;;;;4.53;3.97;;;6.50;99.90;;;;;;5094288;28;20169;-72
2021/05/02 01:37:36;;;;;;;4.00;3.53;;;6.40;99.90;;;;;;5094167;28;20171;-72
2021/05/02 01:40:04;;;;;;;5.90;4.23;;;6.30;99.90;;;;;;5093730;28;20415;-72
2021/05/02 01:42:33;;;;;;;4.65;4.15;;;6.40;99.90;;;;;;5094035;28;20161;-71
2021/05/02 01:44:58;;;;;;;6.10;4.80;;;6.40;99.90;;;;;;5093818;28;20169;-73
2021/05/02 01:47:26;;;;;;;7.00;4.60;;;6.40;99.90;;;;;;5094030;28;20231;-72
2021/05/02 01:50:07;;;;;;;4.55;3.72;;;6.30;99.90;;;;;;5093534;28;20263;-71
2021/05/02 01:52:35;;;;;;;7.97;5.43;;;6.40;99.90;;;;;;5093861;28;20251;-72
2021/05/02 01:55:04;;;;;;;8.10;5.88;;;6.50;99.90;;;;;;5093588;28;20174;-71
2021/05/02 01:57:31;;;;;;;6.97;5.97;;;6.60;99.90;;;;;;5093663;28;20169;-71
2021/05/02 02:00:05;;;;;;;8.65;6.82;;;6.40;99.90;;;;;;5093524;28;20224;-72
2021/05/02 02:02:32;;;;;;;6.32;5.50;;;6.40;99.90;;;;;;5093637;28;20169;-72
2021/05/02 02:04:58;;;;;;;6.93;5.25;;;6.40;99.90;;;;;;5092133;28;20647;-72
2021/05/02 02:07:25;;;;;;;10.02;6.68;;;6.40;99.90;;;;;;5093664;28;20575;-72
2021/05/02 02:09:53;;;;;;;6.88;5.15;;;6.40;99.90;;;;;;5093095;28;20203;-71
2021/05/02 02:12:19;;;;;;;7.53;5.75;;;6.50;99.90;;;;;;5093668;28;20263;-72
2021/05/02 02:14:49;;;;;;;6.80;4.93;;;6.50;99.90;;;;;;5093564;28;20284;-72
2021/05/02 02:17:16;;;;;;;6.25;5.75;;;6.60;99.90;;;;;;5093094;28;20448;-72
2021/05/02 02:19:42;;;;;;;5.88;4.97;;;6.60;99.90;;;;;;5093249;28;20306;-71
2021/05/02 02:22:10;;;;;;;9.10;4.83;;;6.50;99.90;;;;;;5093308;28;20726;-72
2021/05/02 02:24:45;;;;;;;8.43;7.03;;;6.40;99.90;;;;;;5093494;28;20730;-73
2021/05/02 02:27:12;;;;;;;7.72;5.57;;;6.50;99.90;;;;;;5093536;28;20184;-72
2021/05/02 02:29:46;;;;;;;6.50;5.47;;;6.30;99.90;;;;;;5093165;28;20559;-72
2021/05/02 02:32:14;;;;;;;7.38;5.28;;;6.30;99.90;;;;;;5093560;28;20627;-72
2021/05/02 02:34:48;;;;;;;5.00;4.57;;;6.30;99.90;;;;;;5093439;28;20252;-72
2021/05/02 02:37:19;;;;;;;7.18;5.07;;;6.30;99.90;;;;;;5093242;28;20202;-71
2021/05/02 02:39:59;;;;;;;8.20;6.63;;;6.30;99.90;;;;;;5092973;28;20221;-72
2021/05/02 02:42:26;;;;;;;8.32;5.88;;;6.40;99.90;;;;;;5093492;28;20620;-72
2021/05/02 02:45:03;;;;;;;5.72;4.82;;;6.40;99.90;;;;;;5093349;28;20172;-72
2021/05/02 02:47:45;;;;;;;5.43;4.85;;;6.40;99.90;;;;;;5093601;28;20508;-72
2021/05/02 02:50:14;;;;;;;4.78;4.15;;;6.40;99.90;;;;;;5093057;28;20177;-71
2021/05/02 02:52:49;;;;;;;6.45;5.50;;;6.50;99.90;;;;;;5093170;28;20168;-72
2021/05/02 02:55:18;;;;;;;8.55;5.07;;;6.60;99.90;;;;;;5093165;28;20161;-73
2021/05/02 02:57:52;;;;;;;8.90;5.63;;;6.70;99.90;;;;;;5093253;28;20253;-71
2021/05/02 03:00:30;;;;;;;5.45;4.05;;;6.70;99.90;;;;;;5092896;28;20185;-71
2021/05/02 03:02:55;;;;;;;5.10;3.75;;;6.60;99.90;;;;;;5093235;28;20172;-72
2021/05/02 03:05:24;;;;;;;4.73;4.07;;;6.40;99.90;;;;;;5093188;28;20162;-72
2021/05/02 03:07:51;;;;;;;5.65;4.88;;;6.30;99.90;;;;;;5092852;28;20169;-72
2021/05/02 03:10:17;;;;;;;8.75;5.43;;;6.40;99.90;;;;;;5092535;28;20225;-72
2021/05/02 03:12:44;;;;;;;5.50;4.10;;;6.50;99.90;;;;;;5093170;28;20197;-71
2021/05/02 03:15:11;;;;;;;4.45;4.03;;;6.60;99.90;;;;;;5092914;28;20170;-72
2021/05/02 03:17:38;;;;;;;4.53;4.10;;;6.50;99.90;;;;;;5093014;28;20168;-72
2021/05/02 03:20:14;;;;;;;9.82;6.10;;;6.40;99.90;;;;;;5092679;28;20555;-72
2021/05/02 03:22:48;;;;;;;5.07;4.28;;;6.20;99.90;;;;;;5093244;28;20579;-71
2021/05/02 03:25:15;;;;;;;5.45;4.80;;;6.40;99.90;;;;;;5093223;28;20169;-72
2021/05/02 03:27:46;;;;;;;5.85;4.13;;;6.50;99.90;;;;;;5093255;28;20223;-73
2021/05/02 03:30:14;;;;;;;6.50;4.45;;;6.60;99.90;;;;;;5096311;28;20188;-71
2021/05/02 03:32:47;;;;;;;5.70;5.00;;;6.60;99.90;;;;;;5096528;28;20173;-73
2021/05/02 03:35:13;;;;;;;9.32;5.60;;;6.60;99.90;;;;;;5096752;28;20165;-72
2021/05/02 03:37:45;;;;;;;10.35;7.95;;;6.60;99.90;;;;;;5096286;28;20173;-72
2021/05/02 03:40:11;;;;;;;8.95;7.15;;;6.50;99.90;;;;;;5096137;28;20681;-71
2021/05/02 03:42:37;;;;;;;9.57;8.07;;;6.60;99.90;;;;;;5096373;28;20164;-71
2021/05/02 03:45:03;;;;;;;11.23;8.70;;;6.50;99.90;;;;;;5096768;28;20876;-71
2021/05/02 03:47:29;;;;;;;8.02;5.97;;;6.30;99.90;;;;;;5096171;28;20366;-72
2021/05/02 03:49:54;;;;;;;10.93;8.60;;;6.40;99.90;;;;;;5095841;28;20686;-71
2021/05/02 03:52:20;;;;;;;8.77;7.67;;;6.40;99.90;;;;;;5096042;28;20253;-70
2021/05/02 03:54:51;;;;;;;10.93;9.27;;;6.40;99.90;;;;;;5096257;28;20630;-71
2021/05/02 03:57:17;;;;;;;11.32;8.15;;;6.40;99.90;;;;;;5096274;28;20200;-72
2021/05/02 03:59:43;;;;;;;13.03;9.50;;;6.30;99.90;;;;;;5094334;28;20216;-70
2021/05/02 04:02:08;;;;;;;11.57;8.57;;;6.20;99.90;;;;;;5095737;28;20778;-71
2021/05/02 04:04:35;;;;;;;8.93;6.93;;;6.20;99.90;;;;;;5095758;28;20615;-72
2021/05/02 04:07:06;;;;;;;12.07;8.43;;;6.30;99.90;;;;;;5096078;28;20174;-72
2021/05/02 04:09:35;;;;;;;12.40;8.88;;;6.10;99.90;;;;;;5095380;28;20213;-71
2021/05/02 04:12:00;;;;;;;12.13;8.18;;;6.00;99.90;;;;;;5096205;28;20253;-71
2021/05/02 04:14:26;;;;;;;13.40;9.53;;;6.00;99.90;;;;;;5095716;28;20231;-72
2021/05/02 04:17:00;;;;;;;9.53;8.00;;;6.00;99.90;;;;;;5095633;28;20196;-73
2021/05/02 04:19:27;;;;;;;12.65;8.52;;;5.90;99.90;;;;;;5095257;28;20184;-71
2021/05/02 04:21:54;;;;;;;13.60;11.25;;;5.90;99.90;;;;;;5095663;28;20594;-72
2021/05/02 04:24:20;;;;;;;12.23;9.50;;;5.80;99.90;;;;;;5095533;28;20170;-71
2021/05/02 04:26:48;;;;;;;13.48;8.90;;;5.80;99.90;;;;;;5095506;28;20202;-72
2021/05/02 04:29:14;;;;;;;11.38;8.45;;;5.90;99.90;;;;;;5095106;28;20271;-72
2021/05/02 04:31:40;;;;;;;14.73;10.37;;;6.00;99.90;;;;;;5095645;28;20284;-72
2021/05/02 04:34:06;;;;;;;14.10;9.73;;;6.00;99.90;;;;;;5095394;28;20395;-73
2021/05/02 04:36:32;;;;;;;11.30;9.07;;;6.00;99.90;;;;;;5095167;28;20200;-71
2021/05/02 04:38:58;;;;;;;14.50;10.68;;;6.10;99.90;;;;;;5094563;28;20188;-71
2021/05/02 04:41:25;;;;;;;15.05;9.57;;;6.20;99.90;;;;;;5095251;28;20657;-72
2021/05/02 04:43:50;;;;;;;10.55;8.73;;;6.30;99.90;;;;;;5095189;28;20188;-71
2021/05/02 04:46:18;;;;;;;15.07;8.77;;;6.30;99.90;;;;;;5094978;28;20180;-71
2021/05/02 04:48:44;;;;;;;13.50;9.88;;;6.30;99.90;;;;;;5094675;28;20475;-72
2021/05/02 04:51:12;;;;;;;10.57;7.72;;;6.30;99.90;;;;;;5094968;28;20694;-72
2021/05/02 04:53:38;;;;;;;12.65;8.75;;;6.30;99.90;;;;;;5094946;28;20183;-72
2021/05/02 04:56:04;;;;;;;13.67;9.50;;;6.40;99.90;;;;;;5094845;28;20208;-72
2021/05/02 04:58:29;;;;;;;15.48;10.02;;;6.50;99.90;;;;;;5094654;28;20188;-72
2021/05/02 05:00:55;;;;;;;12.60;9.90;;;6.50;99.90;;;;;;5094520;28;20627;-72
2021/05/02 05:03:21;;;;;;;14.60;10.23;;;6.50;99.90;;;;;;5094596;28;20168;-72
2021/05/02 05:05:46;;;;;;;10.90;8.93;;;6.60;99.90;;;;;;5094701;28;20204;-71
2021/05/02 05:08:13;;;;;;;8.20;7.40;;;6.60;99.90;;;;;;5094505;28;20208;-71
2021/05/02 05:10:39;;;;;;;11.52;8.98;;;6.60;99.90;;;;;;5094169;28;20187;-72
2021/05/02 05:13:04;;;;;;;10.83;8.40;;;6.70;99.90;;;;;;5094834;28;20182;-72
2021/05/02 05:15:30;;;;;;;8.53;7.63;;;6.90;99.90;;;;;;5094289;28;20527;-71
2021/05/02 05:17:56;;;;;;;12.03;9.03;;;7.00;99.90;;;;;;5094352;28;20174;-72
2021/05/02 05:20:22;;;;;;;6.70;6.00;;;7.00;99.90;;;;;;5094207;28;20396;-71
2021/05/02 05:22:47;;;;;;;11.47;7.60;;;7.10;99.90;;;;;;5094201;28;20165;-72
2021/05/02 05:25:13;;;;;;;8.77;7.43;;;7.20;99.90;;;;;;5094298;28;20245;-71
2021/05/02 05:27:39;;;;;;;11.17;8.27;;;7.30;99.90;;;;;;5094561;28;20171;-72
2021/05/02 05:30:06;;;;;;;10.50;8.23;;;7.40;99.90;;;;;;5093938;28;20424;-71
2021/05/02 05:32:31;;;;;;;12.63;7.30;;;7.40;99.90;;;;;;5094175;28;20186;-72
2021/05/02 05:34:57;;;;;;;11.50;8.00;;;7.40;99.90;;;;;;5094101;28;20632;-72
2021/05/02 05:37:23;;;;;;;8.37;7.57;;;7.20;99.90;;;;;;5094086;28;20206;-72
2021/05/02 05:39:49;;;;;;;10.03;7.67;;;7.00;99.90;;;;;;5093678;28;20695;-73
2021/05/02 05:42:15;;;;;;;7.30;6.32;;;7.00;99.90;;;;;;5092626;28;20192;-72
2021/05/02 05:44:41;;;;;;;10.80;8.05;;;7.00;99.90;;;;;;5093894;28;20510;-72
2021/05/02 05:47:08;;;;;;;12.23;8.97;;;7.00;99.90;;;;;;5093947;28;20285;-71
2021/05/02 05:49:34;;;;;;;11.13;8.05;;;7.00;99.90;;;;;;5092255;28;20197;-72
2021/05/02 05:52:00;;;;;;;12.52;9.55;;;6.70;99.90;;;;;;5093304;28;20204;-72
2021/05/02 05:54:25;;;;;;;10.23;6.80;;;6.70;99.90;;;;;;5093758;28;20169;-73
2021/05/02 05:56:51;;;;;;;9.33;8.30;;;6.50;99.90;;;;;;5093548;28;20206;-71
2021/05/02 05:59:17;;;;;;;9.23;7.43;;;6.50;99.90;;;;;;5093384;28;20187;-72
2021/05/02 06:01:43;;;;;;;8.27;6.97;;;6.80;99.90;;;;;;5093973;28;20176;-72
2021/05/02 06:04:08;;;;;;;11.53;9.67;;;7.10;99.90;;;;;;5093523;28;20171;-72
2021/05/02 06:06:37;;;;;;;12.83;9.73;;;7.40;99.90;;;;;;5093748;28;20174;-72
2021/05/02 06:09:05;;;;;;;8.25;7.20;;;7.40;99.90;;;;;;5091859;28;20194;-71
2021/05/02 06:11:32;;;;;;;11.38;8.80;;;7.40;99.90;;;;;;5093517;28;20266;-72
2021/05/02 06:13:58;;;;;;;12.45;9.25;;;7.60;99.90;;;;;;5093626;28;20531;-71
2021/05/02 06:16:24;;;;;;;10.60;8.85;;;7.80;99.70;;;;;;5093439;28;20725;-72
2021/05/02 06:18:53;;;;;;;12.27;8.48;;;8.10;99.60;;;;;;5093180;28;20183;-72
2021/05/02 06:21:20;;;;;;;9.70;8.18;;;8.20;98.60;;;;;;5093334;28;20167;-71
2021/05/02 06:23:47;;;;;;;11.30;9.02;;;8.30;98.80;;;;;;5092209;28;20173;-71
2021/05/02 06:26:14;;;;;;;9.77;7.40;;;8.40;98.40;;;;;;5093291;28;20290;-72
2021/05/02 06:28:41;;;;;;;10.32;7.53;;;8.60;97.90;;;;;;5093197;28;20195;-73
2021/05/02 06:31:07;;;;;;;10.30;7.15;;;9.10;97.50;;;;;;5093375;28;20177;-72
2021/05/02 06:33:34;;;;;;;9.67;7.17;;;9.90;96.20;;;;;;5093322;28;20225;-72
2021/05/02 06:35:59;;;;;;;7.60;6.37;;;10.70;95.10;;;;;;5093336;28;20453;-72
2021/05/02 06:38:25;;;;;;;6.67;5.97;;;11.50;93.00;;;;;;5093386;28;20415;-71
2021/05/02 06:40:51;;;;;;;7.67;6.90;;;11.80;90.90;;;;;;5093111;28;20165;-71
2021/05/02 06:43:16;;;;;;;6.57;5.37;;;12.20;88.20;;;;;;5091951;28;20173;-74
2021/05/02 06:45:42;;;;;;;7.30;6.67;;;12.60;85.10;;;;;;5093384;28;20260;-71
2021/05/02 06:48:08;;;;;;;6.27;5.63;;;12.80;84.10;;;;;;5093137;28;20204;-72
2021/05/02 06:50:33;;;;;;;8.17;6.70;;;13.00;84.40;;;;;;5092986;28;20622;-73
2021/05/02 06:52:59;;;;;;;7.13;6.43;;;13.00;82.20;;;;;;5093196;28;20407;-71
2021/05/02 06:55:25;;;;;;;7.20;6.50;;;13.30;83.90;;;;;;5093019;28;20536;-72
2021/05/02 06:57:50;;;;;;;7.30;6.60;;;13.40;79.20;;;;;;5093039;28;20617;-73
2021/05/02 07:00:17;;;;;;;7.93;6.53;;;13.50;75.90;;;;;;5092935;28;20186;-73
2021/05/02 07:02:43;;;;;;;7.97;6.57;;;14.20;75.40;;;;;;5095287;28;20164;-73
2021/05/02 07:05:09;;;;;;;7.53;6.57;;;14.70;73.40;;;;;;5095838;28;20413;-73
2021/05/02 07:07:35;;;;;;;9.53;8.13;;;14.90;70.60;;;;;;5096938;28;20175;-73
2021/05/02 07:10:00;;;;;;;7.33;6.40;;;15.40;69.40;;;;;;5096428;28;20536;-72
2021/05/02 07:12:26;;;;;;;8.37;7.17;;;15.80;66.60;;;;;;5097117;28;20328;-73
2021/05/02 07:14:51;;;;;;;8.10;7.10;;;15.80;65.20;;;;;;5097085;28;20165;-73
2021/05/02 07:17:17;;;;;;;8.67;7.87;;;15.50;66.00;;;;;;5096752;28;20203;-72
2021/05/02 07:19:43;;;;;;;9.17;8.27;;;14.80;67.70;;;;;;5096431;28;20191;-72
2021/05/02 07:22:09;;;;;;;7.73;6.97;;;13.90;72.60;;;;;;5096723;28;20435;-72
2021/05/02 07:24:35;;;;;;;7.20;6.50;;;13.00;73.00;;;;;;5095165;28;20173;-72
2021/05/02 07:27:00;;;;;;;7.87;6.93;;;12.30;79.80;;;;;;5096748;28;20238;-73
2021/05/02 07:29:26;;;;;;;7.73;7.03;;;12.10;77.00;;;;;;5096201;28;20598;-73
2021/05/02 07:31:52;;;;;;;8.40;7.33;;;11.60;78.00;;;;;;5096583;28;20176;-72
2021/05/02 07:34:19;;;;;;;7.37;6.20;;;11.60;82.30;;;;;;5096557;28;20211;-73
2021/05/02 07:36:45;;;;;;;8.90;6.63;;;11.40;83.60;;;;;;5096139;28;20189;-71
2021/05/02 07:39:11;;;;;;;7.83;7.07;;;11.70;84.10;;;;;;5096236;28;20505;-73
2021/05/02 07:41:36;;;;;;;7.80;6.63;;;11.80;80.20;;;;;;5096277;28;20486;-73
2021/05/02 07:44:03;;;;;;;7.93;6.73;;;11.60;78.50;;;;;;5096307;28;20504;-72
2021/05/02 07:46:28;;;;;;;7.90;6.60;;;12.00;84.70;;;;;;5096320;28;20410;-72
2021/05/02 07:48:54;;;;;;;6.43;5.83;;;13.40;77.30;;;;;;5095997;28;20423;-72
2021/05/02 07:51:20;;;;;;;7.10;6.30;;;14.40;73.10;;;;;;5095994;28;20415;-73
2021/05/02 07:53:47;;;;;;;8.40;7.60;;;14.80;68.60;;;;;;5096008;28;20176;-74
2021/05/02 07:56:13;;;;;;;8.23;7.43;;;14.20;66.80;;;;;;5095886;28;20554;-73
2021/05/02 07:58:39;;;;;;;7.97;7.27;;;14.40;67.70;;;;;;5094460;28;20435;-72
2021/05/02 08:01:04;;;;;;;6.73;6.13;;;14.90;67.80;;;;;;5095766;28;20414;-71
2021/05/02 08:03:30;;;;;;;8.03;7.23;;;14.90;65.30;;;;;;5095950;28;20190;-74
2021/05/02 08:05:56;;;;;;;8.10;7.30;;;14.20;67.70;;;;;;5096156;28;20170;-73
2021/05/02 08:08:21;;;;;;;10.03;8.50;;;13.20;68.00;;;;;;5095837;28;20185;-72
2021/05/02 08:10:47;;;;;;;8.90;8.13;;;12.70;69.00;;;;;;5095410;28;20694;-72
2021/05/02 08:13:18;;;;;;;7.17;6.53;;;13.00;73.40;;;;;;5095357;28;20176;-71
2021/05/02 08:15:43;;;;;;;7.23;6.53;;;12.90;70.60;;;;;;5095457;28;20189;-72
2021/05/02 08:18:09;;;;;;;7.83;7.07;;;12.60;69.70;;;;;;5095476;28;20408;-72
2021/05/02 08:20:35;;;;;;;7.30;6.50;;;12.20;73.00;;;;;;5095282;28;20193;-73
2021/05/02 08:23:00;;;;;;;7.40;6.60;;;11.90;75.80;;;;;;5095576;28;20254;-72
2021/05/02 08:25:26;;;;;;;10.13;8.13;;;12.30;77.30;;;;;;5095428;28;20281;-72
2021/05/02 08:27:52;;;;;;;8.23;7.43;;;12.30;74.10;;;;;;5094539;28;20188;-72
2021/05/02 08:30:17;;;;;;;9.33;8.43;;;12.10;73.30;;;;;;5095000;28;20318;-72
2021/05/02 08:32:43;;;;;;;8.97;6.57;;;12.00;77.70;;;;;;5094231;28;20625;-72
2021/05/02 08:35:10;;;;;;;6.57;5.97;;;13.00;74.20;;;;;;5095556;28;20403;-72
2021/05/02 08:37:36;;;;;;;7.37;6.53;;;15.80;71.30;;;;;;5094348;28;20453;-72
2021/05/02 08:40:03;;;;;;;8.57;7.77;;;19.10;57.90;;;;;;5094694;28;20833;-71
2021/05/02 08:42:29;;;;;;;7.47;6.77;;;21.00;50.60;;;;;;5095157;28;20400;-74
2021/05/02 08:44:55;;;;;;;8.00;7.20;;;20.90;47.80;;;;;;5095198;28;20827;-71
2021/05/02 08:47:21;;;;;;;7.70;7.00;;;16.80;48.50;;;;;;5095120;28;20181;-72
2021/05/02 08:49:46;;;;;;;8.90;7.77;;;14.50;57.20;;;;;;5094624;28;20422;-73
2021/05/02 08:52:12;;;;;;;7.60;6.90;;;14.60;59.60;;;;;;5095138;28;20606;-72
2021/05/02 08:54:38;;;;;;;8.67;7.77;;;15.10;58.00;;;;;;5094781;28;20176;-72
2021/05/02 08:57:03;;;;;;;8.80;7.90;;;14.90;57.80;;;;;;5095035;28;20695;-73
2021/05/02 08:59:29;;;;;;;8.13;7.33;;;14.90;58.00;;;;;;5094657;28;20570;-73
2021/05/02 09:01:56;;;;;;;9.93;8.40;;;14.60;58.70;;;;;;5094608;28;20816;-72
2021/05/02 09:04:22;;;;;;;8.67;7.87;;;14.60;59.90;;;;;;5094620;28;20537;-73
2021/05/02 09:06:49;;;;;;;7.93;7.13;;;14.50;59.60;;;;;;5094573;28;20407;-72
2021/05/02 09:09:15;;;;;;;7.93;7.23;;;14.10;59.10;;;;;;5094295;28;20196;-73
2021/05/02 09:11:49;;;;;;;12.00;8.30;;;13.30;60.90;;;;;;5094754;28;20798;-71
2021/05/02 09:14:19;;;;;;;9.73;8.47;;;12.80;63.10;;;;;;5094758;28;20169;-73
2021/05/02 09:17:01;;;;;;;9.07;7.80;;;12.10;64.90;;;;;;5094762;28;20876;-73
2021/05/02 09:19:33;;;;;;;9.93;9.03;;;12.50;64.60;;;;;;5094244;28;20419;-73
2021/05/02 09:22:13;;;;;;;7.67;6.57;;;13.10;64.30;;;;;;5094509;28;20399;-71
2021/05/02 09:24:39;;;;;;;11.40;8.00;;;13.20;65.90;;;;;;5094399;28;20403;-74
2021/05/02 09:27:07;;;;;;;7.40;6.70;;;12.90;69.20;;;;;;5093512;28;20483;-73
2021/05/02 09:29:34;;;;;;;7.40;6.60;;;13.60;68.50;;;;;;5092669;28;20952;-72
2021/05/02 09:32:01;;;;;;;6.63;5.97;;;14.10;62.50;;;;;;5094169;28;20405;-71
2021/05/02 09:34:28;;;;;;;8.30;7.50;;;14.10;64.50;;;;;;5094239;28;20405;-72
2021/05/02 09:37:03;;;;;;;7.73;7.00;;;15.10;64.70;;;;;;5094086;28;20449;-71
2021/05/02 09:39:50;;;;;;;8.67;7.80;;;15.70;58.70;;;;;;5093626;28;20456;-72
2021/05/02 09:42:23;;;;;;;6.90;6.20;;;15.60;58.40;;;;;;5093986;28;20754;-73
2021/05/02 09:44:51;;;;;;;7.90;7.10;;;15.50;59.60;;;;;;5094152;28;20388;-73
2021/05/02 09:47:30;;;;;;;7.70;6.40;;;15.40;58.30;;;;;;5092979;28;20764;-72
2021/05/02 09:50:12;;;;;;;7.70;7.00;;;14.10;58.90;;;;;;5093535;28;20450;-72
2021/05/02 09:52:41;;;;;;;8.67;7.70;;;13.20;62.30;;;;;;5093097;28;20405;-72
2021/05/02 09:55:27;;;;;;;7.97;7.10;;;14.60;61.30;;;;;;5093758;28;20395;-72
2021/05/02 09:57:57;;;;;;;7.10;6.40;;;16.30;59.30;;;;;;5093431;28;20447;-72
2021/05/02 10:00:43;;;;;;;7.30;6.60;;;17.00;55.10;;;;;;5092982;28;20433;-72
2021/05/02 10:03:16;;;;;;;6.83;5.83;;;17.40;53.00;;;;;;5093639;28;20485;-73
2021/05/02 10:05:57;;;;;;;8.00;7.23;;;17.40;52.30;;;;;;5092412;28;20773;-72
2021/05/02 10:08:27;;;;;;;6.57;5.93;;;16.20;51.80;;;;;;5093622;28;20415;-73
2021/05/02 10:10:54;;;;;;;8.00;7.30;;;16.00;54.00;;;;;;5093173;28;20422;-73
2021/05/02 10:13:20;;;;;;;7.90;6.97;;;15.50;55.40;;;;;;5093497;28;20892;-71
2021/05/02 10:15:46;;;;;;;7.83;7.03;;;14.60;58.20;;;;;;5093619;28;20700;-73
2021/05/02 10:18:12;;;;;;;7.00;6.10;;;14.30;59.10;;;;;;5093451;28;20401;-72
2021/05/02 10:20:41;;;;;;;6.70;6.00;;;14.00;58.00;;;;;;5093313;28;20396;-73
2021/05/02 10:23:07;;;;;;;5.63;5.20;;;13.10;56.40;;;;;;5093453;28;20316;-71
2021/05/02 10:25:35;;;;;;;6.77;6.27;;;13.30;56.80;;;;;;5093457;28;20402;-73
2021/05/02 10:28:01;;;;;;;7.20;6.57;;;13.40;58.30;;;;;;5093253;28;20909;-72
2021/05/02 10:30:32;;;;;;;7.93;6.70;;;13.60;58.80;;;;;;5093217;28;20457;-71
2021/05/02 10:33:10;;;;;;;6.37;5.77;;;13.40;57.40;;;;;;5093312;28;20399;-72
2021/05/02 10:35:44;;;;;;;7.97;7.23;;;13.30;58.00;;;;;;5093204;28;20406;-72
2021/05/02 10:38:10;;;;;;;7.70;7.00;;;12.80;58.20;;;;;;5096048;28;20399;-72
2021/05/02 10:40:39;;;;;;;8.07;7.37;;;12.30;59.70;;;;;;5097085;28;20490;-72
2021/05/02 10:43:09;;;;;;;7.43;5.83;;;11.90;60.00;;;;;;5097223;28;20390;-72
2021/05/02 10:45:42;;;;;;;6.10;5.50;;;11.70;62.40;;;;;;5097364;28;20406;-72
2021/05/02 10:48:28;;;;;;;8.13;6.20;;;11.70;63.80;;;;;;5097357;28;20398;-73
2021/05/02 10:50:55;;;;;;;7.20;6.50;;;11.60;65.00;;;;;;5089561;28;20410;-73
2021/05/02 10:53:22;;;;;;;4.80;4.40;;;11.80;64.60;;;;;;5097276;28;20462;-73
2021/05/02 10:55:56;;;;;;;7.33;6.73;;;11.90;64.80;;;;;;5096980;28;20544;-72
2021/05/02 10:58:32;;;;;;;6.43;5.83;;;11.80;63.60;;;;;;5096985;28;20417;-73
2021/05/02 11:01:03;;;;;;;7.47;6.33;;;11.40;66.60;;;;;;5096779;28;20478;-72
2021/05/02 11:03:41;;;;;;;7.57;6.60;;;12.00;71.20;;;;;;5096955;28;20398;-73
2021/05/02 11:06:13;;;;;;;8.40;7.33;;;12.00;64.80;;;;;;5096938;28;20400;-73
2021/05/02 11:08:57;;;;;;;7.68;7.03;;;11.90;67.30;;;;;;5096824;28;20813;-73
2021/05/02 11:11:38;;;;;;;7.38;6.68;;;11.40;66.50;;;;;;5095429;28;20192;-73
2021/05/02 11:14:18;;;;;;;6.57;5.90;;;10.70;70.30;;;;;;5096819;28;20248;-72
2021/05/02 11:16:58;;;;;;;7.95;6.30;;;10.10;83.70;;;;;;5096708;28;20510;-73
2021/05/02 11:19:32;;;;;;;9.35;7.65;;;9.80;84.30;;;;;;5096273;28;20656;-72
2021/05/02 11:22:02;;;;;;;7.88;6.45;;;9.70;85.90;;;;;;5096776;28;20165;-72
2021/05/02 11:24:43;;;;;;;6.18;5.43;;;9.40;87.50;;;;;;5096544;28;20172;-73
2021/05/02 11:27:42;;;;;;;6.53;5.55;;;8.90;89.10;;;;;;5095262;28;20180;-73
2021/05/02 11:30:12;;;;;;;8.57;6.80;;;8.70;91.70;;;;;;5096225;28;20185;-72
2021/05/02 11:32:41;;;;;;;8.60;6.80;;;8.80;93.20;;;;;;5096728;28;20221;-73
2021/05/02 11:35:37;;;;;;;6.45;5.75;;;8.80;92.50;;;;;;5096513;28;20188;-72
2021/05/02 11:38:05;;;;;;;5.70;5.20;;;8.60;93.60;;;;;;5096463;28;20180;-73
2021/05/02 11:40:30;;;;;;;7.57;6.75;;;8.60;95.00;;;;;;5096005;28;20173;-72
2021/05/02 11:43:13;;;;;;;6.53;5.93;;;8.50;94.50;;;;;;5096159;28;20535;-72
2021/05/02 11:45:48;;;;;;;4.60;4.28;;;8.70;94.00;;;;;;5096230;28;20164;-73
2021/05/02 11:48:44;;;;;;;7.47;5.60;;;8.90;94.30;;;;;;5095422;28;20598;-72
2021/05/02 11:51:23;;;;;;;4.72;4.35;;;9.50;93.60;;;;;;5087403;28;20204;-73
2021/05/02 11:53:56;;;;;;;5.00;4.22;;;9.70;92.40;;;;;;5096131;28;20169;-72
2021/05/02 11:56:23;;;;;;;5.80;4.40;;;10.00;90.30;;;;;;5096150;28;20482;-71
2021/05/02 11:58:52;;;;;;;5.97;4.70;;;10.20;91.60;;;;;;5095914;28;20184;-72
2021/05/02 12:01:20;;;;;;;4.60;4.20;;;10.30;90.20;;;;;;5096022;28;20169;-73
2021/05/02 12:03:47;;;;;;;3.90;3.60;;;10.40;89.90;;;;;;5095966;28;20170;-71
2021/05/02 12:06:24;;;;;;;4.57;4.10;;;10.40;91.00;;;;;;5095877;28;20244;-73
2021/05/02 12:08:50;;;;;;;4.28;3.40;;;10.40;91.30;;;;;;5095584;28;20468;-73
2021/05/02 12:11:16;;;;;;;4.57;3.90;;;10.20;90.90;;;;;;5095778;28;20184;-72
2021/05/02 12:13:51;;;;;;;2.70;2.50;;;9.80;91.10;;;;;;5094499;28;20176;-72
2021/05/02 12:16:19;;;;;;;2.70;2.50;;;9.60;91.90;;;;;;5095937;28;20446;-73
2021/05/02 12:18:49;;;;;;;3.15;2.85;;;9.50;92.50;;;;;;5095275;28;20189;-72
2021/05/02 12:21:17;;;;;;;2.92;2.63;;;9.60;93.00;;;;;;5095579;28;20189;-73
2021/05/02 12:23:43;;;;;;;4.22;3.38;;;10.10;92.60;;;;;;5095587;28;20187;-73
2021/05/02 12:26:10;;;;;;;4.72;3.58;;;10.40;89.50;;;;;;5095545;28;20200;-73
2021/05/02 12:28:37;;;;;;;4.13;3.75;;;10.70;87.20;;;;;;5095560;28;20189;-72
2021/05/02 12:31:04;;;;;;;3.60;3.30;;;10.70;87.50;;;;;;5095168;28;20195;-73
2021/05/02 12:33:41;;;;;;;5.40;4.93;;;10.80;86.30;;;;;;5095255;28;20413;-72
2021/05/02 12:36:09;;;;;;;3.30;3.10;;;10.90;83.70;;;;;;5095250;28;20446;-74
2021/05/02 12:38:34;;;;;;;5.28;4.88;;;11.00;81.50;;;;;;5094957;28;20201;-72
2021/05/02 12:41:01;;;;;;;4.40;3.30;;;11.20;84.80;;;;;;5094790;28;20167;-73
2021/05/02 12:43:29;;;;;;;5.17;4.10;;;11.20;83.00;;;;;;5095265;28;20272;-74
2021/05/02 12:45:55;;;;;;;7.18;5.40;;;11.00;83.80;;;;;;5094975;28;20439;-72
2021/05/02 12:48:32;;;;;;;5.82;5.10;;;10.80;86.80;;;;;;5094959;28;20169;-72
2021/05/02 12:50:59;;;;;;;5.45;4.95;;;10.40;89.30;;;;;;5094713;28;20202;-72
2021/05/02 12:53:42;;;;;;;5.00;4.50;;;9.70;91.60;;;;;;5095263;28;20537;-73
2021/05/02 12:56:09;;;;;;;6.00;5.40;;;9.40;92.90;;;;;;5094667;28;20185;-72
2021/05/02 12:58:41;;;;;;;5.05;4.45;;;8.90;94.30;;;;;;5094752;28;20674;-73